Time;durP1;ratioP1;P1;durP2;ratioP2;P2;SDS_P1;SDS_P2;PMS_P1;PMS_P2;Temp;Humidity;BMP_temperature;BMP_pressure;BME280_temperature;BME280_humidity;BME280_pressure;Samples;Min_cycle;Max_cycle;Signal;HPM_P1;HPM_P2
2024/04/20 00:00:04;;;;;;;20.90;6.80;;;;;;;11.44;60.05;97665.31;135118;1261;22548;-70
2024/04/20 00:03:07;;;;;;;17.90;6.10;;;;;;;11.44;60.21;97667.29;135131;1282;22564;-69
2024/04/20 00:06:10;;;;;;;21.00;6.60;;;;;;;11.43;60.39;97668.91;135151;1282;22547;-71
2024/04/20 00:09:14;;;;;;;23.10;5.90;;;;;;;11.42;60.43;97670.42;135183;1263;22535;-70
2024/04/20 00:12:17;;;;;;;20.40;5.70;;;;;;;11.44;60.24;97670.58;135128;1282;22534;-71
2024/04/20 00:15:19;;;;;;;19.60;5.20;;;;;;;11.45;60.24;97674.39;135136;1282;22528;-70
2024/04/20 00:18:21;;;;;;;21.10;6.20;;;;;;;11.50;60.04;97673.77;135131;1282;22623;-70
2024/04/20 00:21:23;;;;;;;20.40;6.30;;;;;;;11.49;60.23;97674.90;135128;1282;22573;-71
2024/04/20 00:24:26;;;;;;;19.20;6.20;;;;;;;11.53;60.33;97674.91;135132;1282;22626;-69
2024/04/20 00:27:30;;;;;;;20.90;5.40;;;;;;;11.50;60.54;97674.52;135087;1282;22563;-71
2024/04/20 00:30:33;;;;;;;18.70;5.70;;;;;;;11.48;60.63;97675.02;135105;1263;24228;-69
2024/04/20 00:33:35;;;;;;;16.90;5.20;;;;;;;11.46;60.83;97680.04;135158;1282;22549;-69
2024/04/20 00:36:37;;;;;;;18.10;5.50;;;;;;;11.48;60.67;97680.77;135089;1282;22545;-69
2024/04/20 00:39:40;;;;;;;18.40;5.90;;;;;;;11.50;60.79;97677.87;135133;1282;22553;-70
2024/04/20 00:42:43;;;;;;;20.10;6.20;;;;;;;11.48;61.28;97680.80;135170;1281;22549;-70
2024/04/20 00:45:45;;;;;;;19.30;6.20;;;;;;;11.50;60.97;97680.61;135157;1282;22542;-71
2024/04/20 00:48:47;;;;;;;19.80;7.20;;;;;;;11.51;61.03;97682.66;135139;1282;22556;-70
2024/04/20 00:51:49;;;;;;;22.80;10.10;;;;;;;11.49;61.14;97682.97;135151;1282;22598;-70
2024/04/20 00:54:51;;;;;;;23.60;10.10;;;;;;;11.51;61.44;97683.20;135162;1282;22598;-70
2024/04/20 00:57:54;;;;;;;19.80;7.10;;;;;;;11.49;61.17;97682.84;135137;1282;22545;-71
2024/04/20 01:00:56;;;;;;;22.90;8.20;;;;;;;11.49;61.48;97683.02;135153;1263;22628;-69
2024/04/20 01:03:58;;;;;;;24.30;9.50;;;;;;;11.52;61.52;97680.32;135110;1282;24281;-70
2024/04/20 01:07:00;;;;;;;26.20;9.20;;;;;;;11.56;61.49;97678.39;135178;1279;22574;-72
2024/04/20 01:10:03;;;;;;;20.60;8.40;;;;;;;11.53;61.52;97681.27;135139;1282;22585;-72
2024/04/20 01:13:05;;;;;;;20.90;7.60;;;;;;;11.52;61.18;97683.96;135113;1282;22553;-70
2024/04/20 01:16:08;;;;;;;21.20;7.30;;;;;;;11.43;61.62;97684.45;135134;1263;22532;-72
2024/04/20 01:19:10;;;;;;;20.40;7.10;;;;;;;11.44;61.56;97686.86;135132;1268;24397;-71
2024/04/20 01:22:12;;;;;;;21.20;6.70;;;;;;;11.51;61.26;97687.38;135137;1282;22663;-71
2024/04/20 01:25:15;;;;;;;;;;;;;;;11.44;61.47;97693.19;135171;1282;22655;-71
2024/04/20 01:28:17;;;;;;;19.00;6.10;;;;;;;11.46;61.55;97691.10;135146;1282;22541;-68
2024/04/20 01:31:19;;;;;;;16.90;5.70;;;;;;;11.42;61.35;97691.43;135141;1282;22553;-70
2024/04/20 01:34:22;;;;;;;16.50;5.30;;;;;;;11.36;61.41;97687.34;68498;1282;1016423;-70
2024/04/20 01:37:24;;;;;;;;;;;;;;;11.34;61.19;97685.92;67526;1282;1016300;-70
2024/04/20 01:40:26;;;;;;;20.30;5.60;;;;;;;11.33;61.29;97687.65;67512;1282;1016462;-70
2024/04/20 01:43:28;;;;;;;16.30;4.50;;;;;;;11.35;61.47;97690.07;67536;1282;1016419;-70
2024/04/20 01:46:31;;;;;;;15.80;4.30;;;;;;;11.41;61.07;97690.60;67546;1282;1016300;-70
2024/04/20 01:49:33;;;;;;;12.90;3.90;;;;;;;11.48;61.05;97690.28;67541;1282;1016488;-70
2024/04/20 01:52:36;;;;;;;;;;;;;;;11.51;60.94;97692.60;67543;1282;1016375;-70
2024/04/20 01:55:38;;;;;;;13.00;4.10;;;;;;;11.44;61.03;97696.67;67511;1282;1016387;-70
2024/04/20 01:58:40;;;;;;;13.10;3.70;;;;;;;11.49;60.69;97696.48;67495;1282;1015864;-70
2024/04/20 02:01:45;;;;;;;14.50;4.60;;;;;;;11.45;60.91;97703.96;67535;1282;1015750;-70
2024/04/20 02:04:48;;;;;;;11.70;3.90;;;;;;;11.48;60.93;97705.63;67492;1282;1017999;-70
2024/04/20 02:07:52;;;;;;;16.00;4.40;;;;;;;11.56;60.82;97707.64;67523;1282;1016148;-69
2024/04/20 02:10:54;;;;;;;15.30;4.60;;;;;;;11.63;60.52;97711.56;67500;1282;1016472;-70
2024/04/20 02:13:56;;;;;;;15.20;4.40;;;;;;;11.69;60.40;97707.79;67500;1282;1016429;-70
2024/04/20 02:16:59;;;;;;;14.40;4.40;;;;;;;11.73;60.45;97709.92;67514;1282;1016389;-70
2024/04/20 02:20:01;;;;;;;12.30;4.10;;;;;;;11.78;60.30;97714.16;67556;1282;1016453;-70
2024/04/20 02:23:03;;;;;;;15.60;4.40;;;;;;;11.85;60.01;97711.65;67534;1282;1016294;-70
2024/04/20 02:26:05;;;;;;;13.80;4.40;;;;;;;11.90;59.91;97716.36;67545;1282;1018784;-70
2024/04/20 02:29:07;;;;;;;15.40;4.80;;;;;;;11.88;59.81;97718.64;67545;1282;1016027;-70
2024/04/20 02:32:10;;;;;;;11.50;4.00;;;;;;;11.83;59.96;97719.20;67529;1282;1016492;-70
2024/04/20 02:35:12;;;;;;;14.80;4.80;;;;;;;11.86;60.13;97721.42;67520;1282;1016302;-70
2024/04/20 02:38:14;;;;;;;15.30;4.60;;;;;;;11.88;59.82;97721.95;67487;1282;1016300;-70
2024/04/20 02:41:16;;;;;;;14.40;4.70;;;;;;;11.90;59.73;97719.15;67484;1282;1016818;-70
2024/04/20 02:44:18;;;;;;;13.20;4.20;;;;;;;11.92;59.86;97721.29;67519;1282;1018266;-70
2024/04/20 02:47:20;;;;;;;16.10;4.80;;;;;;;11.93;59.85;97719.95;67504;1282;1016472;-70
2024/04/20 02:50:23;;;;;;;15.30;4.70;;;;;;;11.87;59.98;97718.70;67520;1282;1016432;-70
2024/04/20 02:53:25;;;;;;;14.60;4.40;;;;;;;11.88;59.96;97724.02;67541;1282;1016704;-70
2024/04/20 02:56:27;;;;;;;14.60;4.50;;;;;;;11.88;60.03;97724.09;67532;1282;1016400;-70
2024/04/20 02:59:29;;;;;;;15.90;4.80;;;;;;;11.87;59.95;97722.02;67531;1282;1016492;-70
2024/04/20 03:02:32;;;;;;;15.00;4.60;;;;;;;11.88;60.02;97725.80;67543;1282;1017188;-70
2024/04/20 03:05:34;;;;;;;13.30;4.50;;;;;;;11.89;59.95;97724.51;67494;1282;1016453;-70
2024/04/20 03:08:37;;;;;;;16.10;5.20;;;;;;;11.91;59.91;97727.66;67506;1282;1018606;-70
2024/04/20 03:11:39;;;;;;;16.50;5.10;;;;;;;11.91;60.10;97728.37;67526;1282;1016464;-70
2024/04/20 03:14:41;;;;;;;17.30;5.50;;;;;;;11.93;60.00;97729.56;67548;1282;1017645;-70
2024/04/20 03:17:43;;;;;;;16.70;5.40;;;;;;;11.92;60.10;97731.59;67546;1282;1016359;-70
2024/04/20 03:20:46;;;;;;;15.50;4.90;;;;;;;11.94;60.26;97730.53;67529;1282;1016073;-70
2024/04/20 03:23:48;;;;;;;16.70;5.10;;;;;;;11.94;60.18;97732.13;67540;1282;1016326;-70
2024/04/20 03:26:50;;;;;;;19.10;6.10;;;;;;;11.99;60.45;97733.81;67542;1282;1016670;-70
2024/04/20 03:29:52;;;;;;;16.30;5.00;;;;;;;12.10;60.15;97734.88;67491;1282;1016046;-71
2024/04/20 03:32:55;;;;;;;18.70;5.00;;;;;;;12.16;59.91;97737.15;67514;1282;1016482;-70
2024/04/20 03:35:58;;;;;;;20.20;5.60;;;;;;;12.22;59.91;97738.79;67541;1282;1016132;-71
2024/04/20 03:39:03;;;;;;;18.10;5.80;;;;;;;12.21;59.64;97738.31;67537;1282;1016497;-71
2024/04/20 03:42:05;;;;;;;20.70;6.50;;;;;;;12.27;59.70;97740.75;67553;1282;1016020;-71
2024/04/20 03:45:07;;;;;;;19.20;5.60;;;;;;;12.32;59.52;97743.86;67537;1282;1016446;-70
2024/04/20 03:48:10;;;;;;;20.70;6.00;;;;;;;12.32;59.70;97744.73;67562;1282;1016424;-71
2024/04/20 03:51:12;;;;;;;17.50;5.60;;;;;;;12.34;59.68;97747.38;67528;1282;1016482;-71
2024/04/20 03:54:14;;;;;;;16.30;5.00;;;;;;;12.32;59.67;97746.16;67511;1282;1016378;-70
2024/04/20 03:57:16;;;;;;;19.00;5.90;;;;;;;12.35;59.71;97746.63;67503;1282;1016380;-69
2024/04/20 04:00:19;;;;;;;17.20;5.80;;;;;;;12.37;59.87;97751.98;67501;1282;1018690;-68
2024/04/20 04:03:24;;;;;;;18.00;5.70;;;;;;;12.36;60.04;97751.42;67506;1282;1016398;-69
2024/04/20 04:06:26;;;;;;;20.00;6.70;;;;;;;12.41;60.13;97754.33;67480;1282;1016500;-69
2024/04/20 04:09:29;;;;;;;20.10;6.30;;;;;;;12.51;59.71;97754.01;67491;1282;1016501;-68
2024/04/20 04:12:31;;;;;;;20.40;6.20;;;;;;;12.58;59.73;97758.49;67530;1282;1016530;-69
2024/04/20 04:15:33;;;;;;;17.00;6.10;;;;;;;12.72;59.62;97755.18;67526;1282;1016572;-69
2024/04/20 04:18:35;;;;;;;20.90;6.60;;;;;;;12.75;59.39;97759.80;67558;1282;1016111;-69
2024/04/20 04:21:38;;;;;;;19.00;6.20;;;;;;;12.81;59.14;97763.11;67524;1282;1016520;-69
2024/04/20 04:24:40;;;;;;;19.00;6.00;;;;;;;12.88;59.13;97764.64;67542;1282;1015988;-69
2024/04/20 04:27:42;;;;;;;19.70;7.00;;;;;;;12.95;58.87;97770.55;67527;1282;1016374;-69
2024/04/20 04:30:45;;;;;;;18.90;6.50;;;;;;;13.05;58.97;97772.52;67491;1282;1016431;-69
2024/04/20 04:33:47;;;;;;;19.90;6.90;;;;;;;13.08;58.71;97773.50;67520;1282;1016488;-68
2024/04/20 04:36:49;;;;;;;16.70;5.70;;;;;;;13.10;58.54;97776.91;67547;1282;1016355;-68
2024/04/20 04:39:52;;;;;;;18.10;5.90;;;;;;;13.13;58.64;97776.30;67545;1282;1016563;-68
2024/04/20 04:42:54;;;;;;;22.90;7.10;;;;;;;13.12;58.38;97778.73;67562;1282;1016138;-68
2024/04/20 04:45:56;;;;;;;21.20;7.00;;;;;;;13.14;58.41;97780.30;67542;1282;1016536;-69
2024/04/20 04:48:58;;;;;;;19.50;6.50;;;;;;;13.25;58.35;97781.81;67581;1282;1016228;-69
2024/04/20 04:52:00;;;;;;;17.70;6.10;;;;;;;13.30;58.11;97782.08;67526;1282;1016264;-68
2024/04/20 04:55:03;;;;;;;21.90;6.30;;;;;;;13.25;58.51;97787.09;67518;1282;1017017;-68
2024/04/20 04:58:05;;;;;;;21.30;7.10;;;;;;;13.24;58.67;97790.16;67528;1282;1016442;-68
2024/04/20 05:01:07;;;;;;;18.80;5.90;;;;;;;13.19;58.66;97795.84;67550;1282;1016449;-69
2024/04/20 05:04:09;;;;;;;19.90;6.80;;;;;;;13.23;58.51;97801.96;67538;1282;1016473;-69
2024/04/20 05:07:12;;;;;;;20.10;6.90;;;;;;;13.29;58.34;97799.52;67548;1282;1016582;-69
2024/04/20 05:10:14;;;;;;;21.00;7.00;;;;;;;13.40;58.10;97802.64;67555;1282;1016585;-68
2024/04/20 05:13:16;;;;;;;20.90;6.90;;;;;;;13.51;58.00;97804.27;67556;1282;1016349;-68
2024/04/20 05:16:18;;;;;;;22.00;7.00;;;;;;;13.59;57.71;97813.20;67544;1282;1018920;-68
2024/04/20 05:19:21;;;;;;;19.90;6.80;;;;;;;13.71;57.75;97810.59;67512;1282;1018200;-68
2024/04/20 05:22:23;;;;;;;20.30;6.40;;;;;;;13.79;57.53;97815.84;67501;1282;1016806;-69
2024/04/20 05:25:25;;;;;;;19.80;6.90;;;;;;;13.86;57.21;97822.42;67543;1282;1016341;-68
2024/04/20 05:28:27;;;;;;;17.40;5.80;;;;;;;13.92;57.26;97820.64;67529;1282;1016389;-68
2024/04/20 05:31:30;;;;;;;17.70;5.70;;;;;;;14.08;56.75;97822.67;67565;1282;1016449;-68
2024/04/20 05:34:32;;;;;;;18.40;6.20;;;;;;;14.06;56.12;97828.71;67544;1282;1016329;-68
2024/04/20 05:37:34;;;;;;;17.90;5.60;;;;;;;13.99;56.11;97831.44;67582;1282;1019317;-68
2024/04/20 05:40:36;;;;;;;21.10;5.80;;;;;;;13.95;56.38;97834.08;67564;1282;1018800;-68
2024/04/20 05:43:39;;;;;;;17.20;5.20;;;;;;;13.96;56.12;97839.96;67560;1282;1017130;-68
2024/04/20 05:46:41;;;;;;;17.90;5.20;;;;;;;14.00;55.59;97842.26;67520;1282;1016369;-68
2024/04/20 05:49:43;;;;;;;17.70;5.10;;;;;;;13.87;56.39;97847.48;67552;1282;1017346;-68
2024/04/20 05:52:46;;;;;;;17.80;5.00;;;;;;;13.92;55.91;97846.14;67512;1282;1016900;-68
2024/04/20 05:55:48;;;;;;;;;;;;;;;13.94;55.97;97845.78;67500;1283;1016305;-68
2024/04/20 05:58:50;;;;;;;14.00;4.30;;;;;;;13.90;55.67;97847.49;67460;1283;1016413;-68
2024/04/20 06:01:52;;;;;;;14.80;4.10;;;;;;;13.95;55.23;97846.92;67473;1283;1018630;-68
2024/04/20 06:04:56;;;;;;;14.50;4.10;;;;;;;13.94;55.35;97853.85;67503;1283;1016508;-68
2024/04/20 06:07:58;;;;;;;16.70;4.20;;;;;;;13.80;55.58;97853.98;67492;1283;1016510;-68
2024/04/20 06:11:00;;;;;;;18.70;5.50;;;;;;;13.70;55.72;97852.64;64978;1283;5365985;-69
2024/04/20 06:14:11;;;;;;;20.00;4.20;;;;;;;13.55;55.84;97860.64;67499;1283;1016285;-68
2024/04/20 06:17:13;;;;;;;17.90;4.90;;;;;;;13.39;56.08;97865.07;67461;1283;1016417;-68
2024/04/20 06:20:15;;;;;;;14.20;3.90;;;;;;;13.41;56.18;97868.36;67474;1283;1016088;-68
2024/04/20 06:23:18;;;;;;;17.50;4.40;;;;;;;13.49;55.72;97868.33;67462;1283;1016442;-67
2024/04/20 06:26:21;;;;;;;15.20;4.30;;;;;;;13.55;55.91;97870.17;67485;1283;1018727;-68
2024/04/20 06:29:26;;;;;;;11.60;3.80;;;;;;;13.56;55.86;97871.68;67508;1283;1016490;-68
2024/04/20 06:32:29;;;;;;;18.60;4.40;;;;;;;13.51;56.48;97879.41;67505;1283;1016190;-68
2024/04/20 06:35:31;;;;;;;15.00;4.30;;;;;;;13.61;56.27;97882.57;67505;1283;1016430;-68
2024/04/20 06:38:33;;;;;;;15.30;4.00;;;;;;;13.62;56.27;97883.59;67484;1283;1016297;-68
2024/04/20 06:41:35;;;;;;;14.70;4.30;;;;;;;13.57;56.13;97887.58;67439;1283;1016503;-68
2024/04/20 06:44:37;;;;;;;17.90;4.70;;;;;;;13.75;56.49;97892.04;67447;1283;1016519;-68
2024/04/20 06:47:40;;;;;;;16.10;4.60;;;;;;;13.94;56.28;97893.40;67461;1283;1016397;-68
2024/04/20 06:50:42;;;;;;;12.10;3.70;;;;;;;14.06;55.65;97894.66;67462;1283;1016237;-67
2024/04/20 06:53:44;;;;;;;9.20;2.70;;;;;;;14.01;54.98;97896.80;67499;1283;1016280;-68
2024/04/20 06:56:46;;;;;;;8.70;2.70;;;;;;;13.90;54.54;97900.92;67496;1283;1015847;-68
2024/04/20 06:59:49;;;;;;;8.90;2.60;;;;;;;13.90;54.83;97906.91;67478;1283;1016226;-68
2024/04/20 07:02:51;;;;;;;12.20;3.20;;;;;;;14.05;54.25;97912.23;67471;1283;1016275;-68
2024/04/20 07:05:53;;;;;;;9.60;3.20;;;;;;;14.08;54.92;97914.05;67467;1283;1016211;-68
2024/04/20 07:08:55;;;;;;;10.40;3.20;;;;;;;14.30;54.50;97915.66;67461;1283;1016153;-68
2024/04/20 07:11:57;;;;;;;17.90;5.50;;;;;;;14.29;54.18;97919.58;67457;1283;1016477;-68
2024/04/20 07:15:00;;;;;;;11.10;3.30;;;;;;;14.36;54.18;97919.34;67435;1283;1016631;-68
2024/04/20 07:18:02;;;;;;;14.80;4.50;;;;;;;14.42;53.63;97919.84;67496;1283;1016886;-68
2024/04/20 07:21:05;;;;;;;15.30;4.60;;;;;;;14.47;53.44;97921.00;67495;1283;1016384;-68
2024/04/20 07:24:08;;;;;;;19.80;6.50;;;;;;;14.49;53.74;97925.19;67482;1283;1016624;-68
2024/04/20 07:27:10;;;;;;;16.80;4.80;;;;;;;14.55;53.49;97928.67;67443;1283;1016479;-68
2024/04/20 07:30:12;;;;;;;12.20;3.60;;;;;;;14.57;53.24;97926.75;67450;1283;1016445;-68
2024/04/20 07:33:14;;;;;;;12.10;3.70;;;;;;;14.66;52.85;97931.93;67487;1283;1018618;-68
2024/04/20 07:36:16;;;;;;;15.40;3.80;;;;;;;14.75;52.77;97929.04;67484;1283;1016481;-68
2024/04/20 07:39:19;;;;;;;16.40;4.00;;;;;;;14.79;52.92;97930.54;67478;1283;1016320;-68
2024/04/20 07:42:21;;;;;;;16.40;3.80;;;;;;;14.87;53.16;97934.90;67484;1260;1016503;-68
2024/04/20 07:45:23;;;;;;;17.20;3.60;;;;;;;14.89;52.79;97937.80;67507;1283;1018632;-68
2024/04/20 07:48:26;;;;;;;16.10;4.10;;;;;;;14.84;52.61;97942.44;67457;1283;1016385;-68
2024/04/20 07:51:28;;;;;;;12.00;3.20;;;;;;;14.81;52.12;97942.87;67448;1283;1016494;-67
2024/04/20 07:54:30;;;;;;;11.10;3.00;;;;;;;14.83;52.26;97947.61;67457;1283;1015972;-68
2024/04/20 07:57:32;;;;;;;14.90;3.60;;;;;;;14.97;52.42;97950.77;67450;1283;1016327;-68
2024/04/20 08:00:34;;;;;;;15.30;3.90;;;;;;;15.10;51.86;97953.02;67485;1283;1016057;-68
2024/04/20 08:03:37;;;;;;;12.40;3.10;;;;;;;15.25;51.94;97953.41;67492;1283;1016518;-68
2024/04/20 08:06:39;;;;;;;14.90;3.70;;;;;;;15.46;51.62;97955.31;67467;1283;1016725;-68
2024/04/20 08:09:41;;;;;;;11.70;3.10;;;;;;;15.89;50.45;97958.29;67475;1283;1016158;-68
2024/04/20 08:12:43;;;;;;;8.80;2.60;;;;;;;15.95;49.78;97957.50;67469;1283;1016380;-68
2024/04/20 08:15:47;;;;;;;13.30;3.50;;;;;;;15.82;50.22;97962.31;67477;1283;1016413;-68
2024/04/20 08:18:50;;;;;;;7.70;2.90;;;;;;;15.98;50.28;97964.67;67447;1283;1016429;-68
2024/04/20 08:21:52;;;;;;;12.90;3.30;;;;;;;15.95;49.45;97968.67;67453;1283;1016179;-67
2024/04/20 08:24:54;;;;;;;13.00;3.90;;;;;;;16.05;50.55;97969.60;67453;1283;1016919;-68
2024/04/20 08:27:56;;;;;;;12.20;3.70;;;;;;;16.40;49.99;97972.39;67456;1283;1016166;-68
2024/04/20 08:31:00;;;;;;;15.30;3.80;;;;;;;16.73;49.83;97970.25;67445;1283;1016365;-68
2024/04/20 08:34:03;;;;;;;8.30;2.90;;;;;;;16.91;49.59;97970.71;67427;1283;1018764;-67
2024/04/20 08:37:06;;;;;;;17.10;4.60;;;;;;;17.34;48.32;97973.86;67475;1283;1016483;-68
2024/04/20 08:40:10;;;;;;;11.00;3.30;;;;;;;16.96;47.37;97975.71;67427;1283;1016375;-67
2024/04/20 08:43:14;;;;;;;11.20;3.60;;;;;;;16.58;47.51;97980.88;67449;1283;1016638;-67
2024/04/20 08:46:17;;;;;;;13.40;3.60;;;;;;;16.26;47.74;97984.16;67481;1283;1016370;-67
2024/04/20 08:49:19;;;;;;;11.00;3.40;;;;;;;16.13;48.29;97989.49;67495;1283;1016212;-67
2024/04/20 08:52:21;;;;;;;11.00;3.20;;;;;;;15.94;48.40;97992.16;67494;1283;1016496;-67
2024/04/20 08:55:23;;;;;;;10.90;3.10;;;;;;;15.96;48.62;97998.00;67484;1283;1016539;-67
2024/04/20 08:58:26;;;;;;;11.60;3.40;;;;;;;15.79;48.85;97999.54;67497;1283;1016413;-67
2024/04/20 09:01:28;;;;;;;12.00;3.50;;;;;;;15.91;49.16;98001.48;67461;1283;1015943;-68
2024/04/20 09:04:30;;;;;;;12.20;3.20;;;;;;;16.05;49.14;98004.20;67443;1283;1017074;-67
2024/04/20 09:07:32;;;;;;;13.40;4.00;;;;;;;16.15;48.61;98006.98;67464;1283;1016503;-67
2024/04/20 09:10:35;;;;;;;10.50;3.10;;;;;;;15.98;48.13;98005.52;67456;1283;1016454;-68
2024/04/20 09:13:37;;;;;;;8.00;2.90;;;;;;;15.62;47.97;98009.66;67451;1283;1016861;-67
2024/04/20 09:16:39;;;;;;;7.90;2.90;;;;;;;15.26;47.96;98018.10;67457;1283;1016244;-68
2024/04/20 09:19:41;;;;;;;6.60;2.40;;;;;;;14.53;48.58;98036.20;67441;1283;1016738;-68
2024/04/20 09:22:44;;;;;;;5.20;2.00;;;;;;;13.91;49.75;98037.18;67463;1283;1016421;-68
2024/04/20 09:25:46;;;;;;;6.60;1.80;;;;;;;13.66;51.03;98037.23;67488;1283;1016318;-68
2024/04/20 09:28:48;;;;;;;6.80;2.00;;;;;;;13.61;51.00;98042.09;67487;1283;1016096;-68
2024/04/20 09:31:51;;;;;;;6.80;2.00;;;;;;;13.61;51.43;98048.75;67468;1283;1016624;-68
2024/04/20 09:34:53;;;;;;;7.70;1.90;;;;;;;13.71;51.97;98050.23;67464;1283;1016202;-67
2024/04/20 09:37:55;;;;;;;7.20;2.20;;;;;;;13.87;51.98;98056.36;67456;1283;1016427;-68
2024/04/20 09:40:57;;;;;;;5.20;2.10;;;;;;;13.86;52.63;98061.04;67433;1283;1016445;-68
2024/04/20 09:44:02;;;;;;;6.20;2.00;;;;;;;13.91;52.49;98062.71;67444;1283;1016790;-68
2024/04/20 09:47:04;;;;;;;6.10;1.90;;;;;;;14.00;52.37;98061.77;67460;1283;1016436;-68
2024/04/20 09:50:09;;;;;;;5.60;2.20;;;;;;;14.13;52.52;98062.27;67478;1283;1016150;-68
2024/04/20 09:53:12;;;;;;;6.90;2.50;;;;;;;14.26;52.98;98067.98;67485;1283;1016439;-68
2024/04/20 09:56:15;;;;;;;9.10;2.60;;;;;;;14.41;52.81;98074.57;67469;1283;1016202;-68
2024/04/20 09:59:17;;;;;;;7.90;2.70;;;;;;;14.51;51.80;98075.45;67471;1283;1016422;-68
2024/04/20 10:02:19;;;;;;;7.30;2.50;;;;;;;14.70;52.05;98076.54;67426;1283;1016485;-68
2024/04/20 10:05:21;;;;;;;9.20;2.90;;;;;;;14.97;52.08;98076.91;67452;1283;1016724;-67
2024/04/20 10:08:24;;;;;;;13.90;4.20;;;;;;;15.19;52.09;98076.02;67435;1283;1016489;-68
2024/04/20 10:11:27;;;;;;;15.70;3.90;;;;;;;15.32;51.17;98075.19;67452;1283;1016515;-67
2024/04/20 10:14:30;;;;;;;13.30;3.70;;;;;;;15.32;51.90;98077.48;67479;1283;1016473;-68
2024/04/20 10:17:32;;;;;;;11.30;3.10;;;;;;;15.44;51.45;98074.82;67446;1283;1016337;-68
2024/04/20 10:20:34;;;;;;;10.10;3.00;;;;;;;15.41;50.98;98076.68;67465;1283;1016493;-68
2024/04/20 10:23:36;;;;;;;8.10;2.40;;;;;;;15.35;50.99;98081.45;67481;1283;1016284;-68
2024/04/20 10:26:40;;;;;;;4.70;2.00;;;;;;;15.30;50.17;98084.73;67469;1283;1016463;-68
2024/04/20 10:29:42;;;;;;;7.70;2.60;;;;;;;15.31;49.84;98083.95;67473;1283;1016429;-68
2024/04/20 10:32:44;;;;;;;6.70;2.40;;;;;;;15.63;49.89;98080.23;67499;1283;1016487;-67
2024/04/20 10:35:46;;;;;;;7.80;2.60;;;;;;;16.23;50.65;98082.16;67465;1283;1018252;-68
2024/04/20 10:38:49;;;;;;;7.40;2.70;;;;;;;16.85;50.85;98085.41;67509;1283;1016449;-68
2024/04/20 10:41:51;;;;;;;6.70;2.40;;;;;;;17.43;50.24;98085.63;67482;1283;1016494;-68
2024/04/20 10:44:53;;;;;;;6.70;2.50;;;;;;;17.98;48.49;98087.11;67457;1283;1016000;-67
2024/04/20 10:47:56;;;;;;;5.70;2.30;;;;;;;18.55;48.92;98087.31;67454;1283;1016518;-67
2024/04/20 10:50:58;;;;;;;10.70;2.60;;;;;;;19.03;47.77;98090.73;67503;1283;1016477;-67
2024/04/20 10:54:02;;;;;;;12.00;3.10;;;;;;;19.24;45.32;98091.13;67488;1283;1016250;-67
2024/04/20 10:57:07;;;;;;;13.40;3.60;;;;;;;19.25;44.61;98094.52;67406;1283;1018798;-67
2024/04/20 11:00:09;;;;;;;15.10;3.90;;;;;;;19.18;45.34;98096.52;67446;1283;1016077;-68
2024/04/20 11:03:11;;;;;;;14.20;3.50;;;;;;;19.14;43.80;98100.70;67422;1283;1016498;-67
2024/04/20 11:06:14;;;;;;;13.40;3.80;;;;;;;18.87;43.69;98104.79;67447;1283;1016402;-68
2024/04/20 11:09:16;;;;;;;12.30;3.30;;;;;;;18.68;44.05;98105.66;67444;1283;1018250;-67
2024/04/20 11:12:19;;;;;;;15.20;4.20;;;;;;;18.59;44.08;98109.86;67464;1283;1017296;-67
2024/04/20 11:15:21;;;;;;;;;;;;;;;18.72;44.77;98112.55;67491;1283;1019042;-67
2024/04/20 11:18:23;;;;;;;16.80;4.30;;;;;;;18.84;45.25;98116.79;67485;1283;1016457;-67
2024/04/20 11:21:25;;;;;;;17.80;4.90;;;;;;;18.94;45.48;98122.08;67437;1283;1016295;-67
2024/04/20 11:24:27;;;;;;;10.30;3.30;;;;;;;18.79;44.01;98127.73;67420;1283;1016403;-67
2024/04/20 11:27:30;;;;;;;10.60;3.00;;;;;;;17.83;44.27;98134.77;67436;1283;1015814;-68
2024/04/20 11:30:32;;;;;;;7.70;2.90;;;;;;;16.51;46.35;98154.66;67445;1283;1016192;-68
2024/04/20 11:33:34;;;;;;;5.20;2.50;;;;;;;15.59;48.83;98162.68;67447;1283;1016356;-67
2024/04/20 11:36:36;;;;;;;4.30;2.30;;;;;;;14.97;50.69;98171.83;67441;1283;1019424;-68
2024/04/20 11:39:38;;;;;;;6.10;2.40;;;;;;;14.68;51.16;98174.02;67465;1283;1016618;-68
2024/04/20 11:42:43;;;;;;;7.40;1.90;;;;;;;14.52;51.10;98178.59;67458;1283;1016548;-68
2024/04/20 11:45:46;;;;;;;5.10;2.20;;;;;;;14.36;51.04;98176.24;67477;1283;1016686;-67
2024/04/20 11:48:48;;;;;;;9.20;1.90;;;;;;;14.32;50.66;98181.73;67462;1283;1018631;-68
2024/04/20 11:55:11;;;;;;;7.60;1.80;;;;;;;14.13;50.80;98182.67;67478;1283;1018715;-68
2024/04/20 11:58:13;;;;;;;5.00;1.80;;;;;;;14.14;51.36;98186.58;67458;1283;1016299;-68
2024/04/20 12:01:15;;;;;;;5.10;2.00;;;;;;;14.15;51.30;98194.59;67442;1283;1015735;-68
2024/04/20 12:04:18;;;;;;;4.60;1.80;;;;;;;14.20;51.15;98192.75;67432;1283;1018672;-68
2024/04/20 12:07:20;;;;;;;6.80;2.50;;;;;;;14.40;51.31;98194.00;67447;1283;1016473;-68
2024/04/20 12:10:22;;;;;;;4.90;2.10;;;;;;;14.87;50.96;98196.33;67455;1283;1017712;-68
2024/04/20 12:13:25;;;;;;;6.60;2.40;;;;;;;15.47;49.97;98197.26;67446;1283;1016114;-68
2024/04/20 12:16:28;;;;;;;7.90;2.50;;;;;;;15.85;49.56;98199.34;67494;1283;1018851;-69
2024/04/20 12:19:30;;;;;;;11.40;3.20;;;;;;;16.19;49.47;98195.26;67489;1283;1016506;-68
2024/04/20 12:22:33;;;;;;;11.50;3.50;;;;;;;16.61;49.30;98190.28;67511;1283;1016476;-68
2024/04/20 12:25:35;;;;;;;11.50;3.40;;;;;;;16.96;48.78;98190.30;67462;1283;1016354;-68
2024/04/20 12:28:37;;;;;;;6.70;2.60;;;;;;;17.09;48.22;98191.83;67477;1283;1016490;-68
2024/04/20 12:31:39;;;;;;;7.10;2.30;;;;;;;17.17;48.14;98195.08;67454;1283;1016511;-68
2024/04/20 12:34:42;;;;;;;7.40;2.30;;;;;;;16.97;48.25;98195.61;67448;1283;1016440;-68
2024/04/20 12:37:44;;;;;;;7.40;2.10;;;;;;;16.75;48.03;98195.05;67446;1283;1017139;-68
2024/04/20 12:40:46;;;;;;;5.00;2.50;;;;;;;16.65;48.15;98197.15;67464;1283;1018170;-68
2024/04/20 12:43:50;;;;;;;6.00;2.40;;;;;;;16.86;48.20;98195.05;67491;1283;1018732;-68
2024/04/20 12:46:53;;;;;;;8.40;2.60;;;;;;;17.11;47.88;98199.20;67480;1283;1016515;-68
2024/04/20 12:49:55;;;;;;;8.40;2.40;;;;;;;17.14;47.50;98202.67;67491;1283;1016448;-68
2024/04/20 12:53:04;;;;;;;6.50;2.60;;;;;;;17.30;48.16;98199.71;67502;1283;1016252;-68
2024/04/20 12:56:07;;;;;;;6.90;2.30;;;;;;;17.73;47.62;98195.75;67479;1283;1016450;-68
2024/04/20 12:59:09;;;;;;;6.20;2.60;;;;;;;17.76;47.09;98201.85;67473;1283;1016380;-68
2024/04/20 13:02:11;;;;;;;6.70;2.30;;;;;;;17.87;47.62;98204.23;67476;1283;1016541;-68
2024/04/20 13:05:13;;;;;;;;;;;;;;;18.00;47.53;98206.90;67433;1283;1016506;-68
2024/04/20 13:08:18;;;;;;;7.90;2.50;;;;;;;18.38;46.95;98207.56;67432;1283;1016338;-67
2024/04/20 13:11:21;;;;;;;4.90;2.30;;;;;;;18.17;45.36;98208.58;67464;1283;1016459;-68
2024/04/20 13:14:23;;;;;;;9.10;3.40;;;;;;;17.94;45.73;98212.23;67478;1283;1016716;-68
2024/04/20 13:17:25;;;;;;;6.20;2.60;;;;;;;17.92;46.41;98214.88;67488;1283;1015887;-67
2024/04/20 13:20:27;;;;;;;6.00;2.50;;;;;;;18.06;46.00;98223.42;67468;1283;1016436;-68
2024/04/20 13:23:30;;;;;;;5.20;2.00;;;;;;;17.84;45.84;98221.36;67450;1283;1015757;-68
2024/04/20 13:26:32;;;;;;;8.00;2.50;;;;;;;17.60;45.53;98229.77;67440;1283;1016498;-67
2024/04/20 13:29:34;;;;;;;6.30;2.60;;;;;;;17.34;45.91;98231.98;67428;1283;1016492;-68
2024/04/20 13:32:36;;;;;;;6.10;2.30;;;;;;;17.25;45.78;98233.35;67424;1283;1016440;-67
2024/04/20 13:35:40;;;;;;;6.40;2.50;;;;;;;17.16;46.18;98231.61;67460;1283;1016427;-67
2024/04/20 13:38:42;;;;;;;7.60;2.60;;;;;;;17.04;46.01;98233.44;67443;1283;1016486;-68
2024/04/20 13:41:44;;;;;;;9.00;3.00;;;;;;;16.72;47.31;98239.00;67445;1283;1016499;-68
2024/04/20 13:44:46;;;;;;;8.60;2.50;;;;;;;16.15;48.15;98245.85;67449;1283;1016425;-68
2024/04/20 13:47:50;;;;;;;8.30;2.70;;;;;;;15.53;49.22;98250.31;67438;1283;1016431;-68
2024/04/20 13:50:52;;;;;;;8.80;2.60;;;;;;;15.17;49.60;98253.12;67414;1283;1016399;-68
2024/04/20 13:53:54;;;;;;;6.90;2.40;;;;;;;15.15;49.62;98251.77;67448;1283;1016882;-68
2024/04/20 13:56:56;;;;;;;4.00;1.80;;;;;;;15.29;49.50;98254.71;67431;1283;1016255;-68